sensor_id;sensor_type;location;lat;lon;timestamp;pressure;altitude;pressure_sealevel;temperature;humidity
56006;BME280;41888;44.696;10.522;2023-04-26T00:00:44;100175.19;;;7.62;100.00
56006;BME280;41888;44.696;10.522;2023-04-26T00:03:11;100180.06;;;7.58;100.00
56006;BME280;41888;44.696;10.522;2023-04-26T00:05:40;100183.78;;;7.64;100.00
56006;BME280;41888;44.696;10.522;2023-04-26T00:08:06;100181.50;;;7.61;100.00
56006;BME280;41888;44.696;10.522;2023-04-26T00:10:32;100175.44;;;7.67;100.00
56006;BME280;41888;44.696;10.522;2023-04-26T00:12:58;100174.09;;;7.78;100.00
56006;BME280;41888;44.696;10.522;2023-04-26T00:15:25;100174.00;;;7.64;100.00
56006;BME280;41888;44.696;10.522;2023-04-26T00:17:51;100165.66;;;7.40;100.00
56006;BME280;41888;44.696;10.522;2023-04-26T00:20:17;100174.50;;;7.53;100.00
56006;BME280;41888;44.696;10.522;2023-04-26T00:22:44;100170.06;;;7.33;100.00
56006;BME280;41888;44.696;10.522;2023-04-26T00:25:10;100164.09;;;7.24;100.00
56006;BME280;41888;44.696;10.522;2023-04-26T00:27:37;100168.50;;;7.17;100.00
56006;BME280;41888;44.696;10.522;2023-04-26T00:30:03;100165.78;;;7.32;100.00
56006;BME280;41888;44.696;10.522;2023-04-26T00:32:30;100165.66;;;7.18;100.00
56006;BME280;41888;44.696;10.522;2023-04-26T00:34:56;100166.09;;;7.22;100.00
56006;BME280;41888;44.696;10.522;2023-04-26T00:37:23;100182.16;;;7.20;100.00
56006;BME280;41888;44.696;10.522;2023-04-26T00:39:49;100164.84;;;7.18;100.00
56006;BME280;41888;44.696;10.522;2023-04-26T00:42:16;100162.44;;;7.02;100.00
56006;BME280;41888;44.696;10.522;2023-04-26T00:44:42;100164.75;;;6.90;100.00
56006;BME280;41888;44.696;10.522;2023-04-26T00:47:08;100169.16;;;6.83;100.00
56006;BME280;41888;44.696;10.522;2023-04-26T00:49:34;100167.22;;;6.92;100.00
56006;BME280;41888;44.696;10.522;2023-04-26T00:52:02;100169.66;;;6.93;100.00
56006;BME280;41888;44.696;10.522;2023-04-26T00:54:28;100175.84;;;7.00;100.00
56006;BME280;41888;44.696;10.522;2023-04-26T00:56:54;100165.16;;;6.87;100.00
56006;BME280;41888;44.696;10.522;2023-04-26T00:59:21;100179.13;;;7.02;100.00
56006;BME280;41888;44.696;10.522;2023-04-26T01:01:47;100171.44;;;7.07;100.00
56006;BME280;41888;44.696;10.522;2023-04-26T01:04:14;100170.94;;;6.97;100.00
56006;BME280;41888;44.696;10.522;2023-04-26T01:06:41;100173.59;;;6.97;100.00
56006;BME280;41888;44.696;10.522;2023-04-26T01:09:07;100172.13;;;6.95;100.00
56006;BME280;41888;44.696;10.522;2023-04-26T01:11:35;100181.00;;;6.87;100.00
56006;BME280;41888;44.696;10.522;2023-04-26T01:14:03;100180.09;;;6.80;100.00
56006;BME280;41888;44.696;10.522;2023-04-26T01:16:31;100178.63;;;6.77;100.00
56006;BME280;41888;44.696;10.522;2023-04-26T01:19:05;100189.19;;;6.92;100.00
56006;BME280;41888;44.696;10.522;2023-04-26T01:21:31;100183.91;;;6.92;100.00
56006;BME280;41888;44.696;10.522;2023-04-26T01:23:58;100184.41;;;6.66;100.00
56006;BME280;41888;44.696;10.522;2023-04-26T01:26:24;100181.97;;;6.65;100.00
56006;BME280;41888;44.696;10.522;2023-04-26T01:28:50;100192.75;;;6.85;100.00
56006;BME280;41888;44.696;10.522;2023-04-26T01:31:16;100191.69;;;6.79;100.00
56006;BME280;41888;44.696;10.522;2023-04-26T01:33:43;100201.03;;;6.60;100.00
56006;BME280;41888;44.696;10.522;2023-04-26T01:36:09;100199.38;;;6.59;100.00
56006;BME280;41888;44.696;10.522;2023-04-26T01:38:36;100198.38;;;6.60;100.00
56006;BME280;41888;44.696;10.522;2023-04-26T01:41:02;100202.72;;;6.68;100.00
56006;BME280;41888;44.696;10.522;2023-04-26T01:43:29;100215.91;;;6.83;100.00
56006;BME280;41888;44.696;10.522;2023-04-26T01:45:55;100207.06;;;6.90;100.00
56006;BME280;41888;44.696;10.522;2023-04-26T01:48:21;100212.28;;;6.84;100.00
56006;BME280;41888;44.696;10.522;2023-04-26T01:50:47;100221.94;;;6.91;100.00
56006;BME280;41888;44.696;10.522;2023-04-26T01:53:13;100228.50;;;6.95;100.00
56006;BME280;41888;44.696;10.522;2023-04-26T01:55:39;100236.19;;;7.11;100.00
56006;BME280;41888;44.696;10.522;2023-04-26T01:58:05;100236.31;;;7.25;100.00
56006;BME280;41888;44.696;10.522;2023-04-26T02:00:33;100243.16;;;7.34;100.00
56006;BME280;41888;44.696;10.522;2023-04-26T02:02:59;100237.03;;;7.33;100.00
56006;BME280;41888;44.696;10.522;2023-04-26T02:05:25;100239.63;;;6.91;100.00
56006;BME280;41888;44.696;10.522;2023-04-26T02:07:52;100244.63;;;7.00;100.00
56006;BME280;41888;44.696;10.522;2023-04-26T02:10:18;100242.44;;;6.89;100.00
56006;BME280;41888;44.696;10.522;2023-04-26T02:12:44;100237.56;;;6.57;100.00
56006;BME280;41888;44.696;10.522;2023-04-26T02:15:10;100238.84;;;6.61;100.00
56006;BME280;41888;44.696;10.522;2023-04-26T02:17:37;100238.09;;;6.67;100.00
56006;BME280;41888;44.696;10.522;2023-04-26T02:20:03;100233.38;;;6.62;100.00
56006;BME280;41888;44.696;10.522;2023-04-26T02:22:30;100233.47;;;6.69;100.00
56006;BME280;41888;44.696;10.522;2023-04-26T02:24:56;100241.38;;;6.69;100.00
56006;BME280;41888;44.696;10.522;2023-04-26T02:27:22;100241.81;;;6.72;100.00
56006;BME280;41888;44.696;10.522;2023-04-26T02:29:48;100238.63;;;6.77;100.00
56006;BME280;41888;44.696;10.522;2023-04-26T02:32:15;100248.13;;;6.86;100.00
56006;BME280;41888;44.696;10.522;2023-04-26T02:34:41;100242.00;;;6.86;100.00
56006;BME280;41888;44.696;10.522;2023-04-26T02:37:08;100244.53;;;6.94;100.00
56006;BME280;41888;44.696;10.522;2023-04-26T02:39:34;100233.13;;;6.93;100.00
56006;BME280;41888;44.696;10.522;2023-04-26T02:42:00;100231.31;;;6.94;100.00
56006;BME280;41888;44.696;10.522;2023-04-26T02:44:29;100218.16;;;7.00;100.00
56006;BME280;41888;44.696;10.522;2023-04-26T02:46:56;100227.88;;;7.14;100.00
56006;BME280;41888;44.696;10.522;2023-04-26T02:49:22;100236.47;;;7.16;100.00
56006;BME280;41888;44.696;10.522;2023-04-26T02:51:48;100234.38;;;7.12;100.00
56006;BME280;41888;44.696;10.522;2023-04-26T02:54:15;100238.72;;;7.19;100.00
56006;BME280;41888;44.696;10.522;2023-04-26T02:56:41;100242.78;;;7.01;100.00
56006;BME280;41888;44.696;10.522;2023-04-26T02:59:07;100232.47;;;6.55;100.00
56006;BME280;41888;44.696;10.522;2023-04-26T03:01:33;100240.94;;;6.51;100.00
56006;BME280;41888;44.696;10.522;2023-04-26T03:03:59;100241.41;;;6.40;100.00
56006;BME280;41888;44.696;10.522;2023-04-26T03:06:26;100239.84;;;6.45;100.00
56006;BME280;41888;44.696;10.522;2023-04-26T03:08:53;100242.59;;;6.22;100.00
56006;BME280;41888;44.696;10.522;2023-04-26T03:11:19;100250.03;;;6.19;100.00
56006;BME280;41888;44.696;10.522;2023-04-26T03:13:45;100246.88;;;6.23;100.00
56006;BME280;41888;44.696;10.522;2023-04-26T03:16:11;100246.22;;;6.21;100.00
56006;BME280;41888;44.696;10.522;2023-04-26T03:18:37;100247.09;;;6.14;100.00
56006;BME280;41888;44.696;10.522;2023-04-26T03:21:04;100240.84;;;6.15;100.00
56006;BME280;41888;44.696;10.522;2023-04-26T03:23:30;100241.06;;;5.90;100.00
56006;BME280;41888;44.696;10.522;2023-04-26T03:25:57;100244.56;;;5.83;100.00
56006;BME280;41888;44.696;10.522;2023-04-26T03:28:23;100237.84;;;5.80;100.00
56006;BME280;41888;44.696;10.522;2023-04-26T03:30:49;100248.38;;;6.03;100.00
56006;BME280;41888;44.696;10.522;2023-04-26T03:33:16;100236.91;;;5.96;100.00
56006;BME280;41888;44.696;10.522;2023-04-26T03:35:43;100250.94;;;6.11;100.00
56006;BME280;41888;44.696;10.522;2023-04-26T03:38:09;100246.47;;;5.97;100.00
56006;BME280;41888;44.696;10.522;2023-04-26T03:40:35;100248.84;;;5.92;100.00
56006;BME280;41888;44.696;10.522;2023-04-26T03:43:01;100251.63;;;5.90;100.00
56006;BME280;41888;44.696;10.522;2023-04-26T03:45:28;100257.59;;;6.07;100.00
56006;BME280;41888;44.696;10.522;2023-04-26T03:47:54;100247.03;;;6.07;100.00
56006;BME280;41888;44.696;10.522;2023-04-26T03:50:21;100251.84;;;6.04;100.00
56006;BME280;41888;44.696;10.522;2023-04-26T03:52:47;100253.75;;;5.95;100.00
56006;BME280;41888;44.696;10.522;2023-04-26T03:55:14;100249.91;;;5.98;100.00
56006;BME280;41888;44.696;10.522;2023-04-26T03:57:40;100262.06;;;5.84;100.00
56006;BME280;41888;44.696;10.522;2023-04-26T04:00:06;100253.78;;;5.87;100.00
56006;BME280;41888;44.696;10.522;2023-04-26T04:02:41;100250.50;;;5.85;100.00
56006;BME280;41888;44.696;10.522;2023-04-26T04:05:07;100252.91;;;5.72;100.00
56006;BME280;41888;44.696;10.522;2023-04-26T04:07:34;100255.50;;;5.80;100.00
56006;BME280;41888;44.696;10.522;2023-04-26T04:10:01;100256.31;;;5.80;100.00
56006;BME280;41888;44.696;10.522;2023-04-26T04:12:27;100261.94;;;5.77;100.00
56006;BME280;41888;44.696;10.522;2023-04-26T04:14:53;100270.50;;;5.79;100.00
56006;BME280;41888;44.696;10.522;2023-04-26T04:17:19;100269.03;;;5.77;100.00
56006;BME280;41888;44.696;10.522;2023-04-26T04:19:45;100268.00;;;5.86;100.00
56006;BME280;41888;44.696;10.522;2023-04-26T04:22:11;100258.91;;;5.88;100.00
56006;BME280;41888;44.696;10.522;2023-04-26T04:24:38;100259.41;;;5.84;100.00
56006;BME280;41888;44.696;10.522;2023-04-26T04:27:04;100262.31;;;5.97;100.00
56006;BME280;41888;44.696;10.522;2023-04-26T04:29:30;100267.00;;;5.87;100.00
56006;BME280;41888;44.696;10.522;2023-04-26T04:31:57;100260.91;;;5.86;100.00
56006;BME280;41888;44.696;10.522;2023-04-26T04:34:23;100271.28;;;5.88;100.00
56006;BME280;41888;44.696;10.522;2023-04-26T04:36:51;100270.31;;;6.04;100.00
56006;BME280;41888;44.696;10.522;2023-04-26T04:39:17;100269.16;;;6.06;100.00
56006;BME280;41888;44.696;10.522;2023-04-26T04:41:43;100277.81;;;6.29;100.00
56006;BME280;41888;44.696;10.522;2023-04-26T04:44:14;100274.59;;;6.71;100.00
56006;BME280;41888;44.696;10.522;2023-04-26T04:46:43;100281.22;;;7.54;100.00
56006;BME280;41888;44.696;10.522;2023-04-26T04:49:12;100287.47;;;8.38;100.00
56006;BME280;41888;44.696;10.522;2023-04-26T04:51:38;100290.75;;;9.22;100.00
56006;BME280;41888;44.696;10.522;2023-04-26T04:54:14;100294.56;;;9.87;100.00
56006;BME280;41888;44.696;10.522;2023-04-26T04:56:41;100293.16;;;10.50;100.00
56006;BME280;41888;44.696;10.522;2023-04-26T04:59:08;100295.53;;;10.78;100.00
56006;BME280;41888;44.696;10.522;2023-04-26T05:01:34;100311.25;;;11.43;100.00
56006;BME280;41888;44.696;10.522;2023-04-26T05:04:02;100298.84;;;11.62;100.00
56006;BME280;41888;44.696;10.522;2023-04-26T05:06:29;100313.50;;;12.34;100.00
56006;BME280;41888;44.696;10.522;2023-04-26T05:08:57;100312.44;;;12.60;99.68
56006;BME280;41888;44.696;10.522;2023-04-26T05:11:24;100315.66;;;13.23;94.67
56006;BME280;41888;44.696;10.522;2023-04-26T05:13:50;100326.47;;;13.76;90.80
56006;BME280;41888;44.696;10.522;2023-04-26T05:16:16;100326.44;;;14.18;86.66
56006;BME280;41888;44.696;10.522;2023-04-26T05:18:43;100334.19;;;14.49;85.61
56006;BME280;41888;44.696;10.522;2023-04-26T05:21:09;100343.69;;;15.03;82.68
56006;BME280;41888;44.696;10.522;2023-04-26T05:23:35;100344.63;;;14.97;83.04
56006;BME280;41888;44.696;10.522;2023-04-26T05:26:03;100352.59;;;15.72;79.57
56006;BME280;41888;44.696;10.522;2023-04-26T05:28:32;100351.38;;;16.41;77.02
56006;BME280;41888;44.696;10.522;2023-04-26T05:31:01;100364.38;;;17.00;73.10
56006;BME280;41888;44.696;10.522;2023-04-26T05:33:29;100365.41;;;18.12;67.89
56006;BME280;41888;44.696;10.522;2023-04-26T05:35:55;100365.69;;;18.48;65.01
56006;BME280;41888;44.696;10.522;2023-04-26T05:38:23;100368.59;;;19.20;62.41
56006;BME280;41888;44.696;10.522;2023-04-26T05:40:49;100363.44;;;19.71;57.53
56006;BME280;41888;44.696;10.522;2023-04-26T05:43:16;100374.28;;;20.11;56.18
56006;BME280;41888;44.696;10.522;2023-04-26T05:45:52;100368.31;;;20.90;53.79
56006;BME280;41888;44.696;10.522;2023-04-26T05:48:19;100372.78;;;21.45;51.65
56006;BME280;41888;44.696;10.522;2023-04-26T05:50:46;100382.88;;;22.23;48.33
56006;BME280;41888;44.696;10.522;2023-04-26T05:53:12;100381.34;;;21.68;47.67
56006;BME280;41888;44.696;10.522;2023-04-26T05:55:39;100386.59;;;22.66;46.90
56006;BME280;41888;44.696;10.522;2023-04-26T05:58:05;100392.81;;;23.43;44.48
56006;BME280;41888;44.696;10.522;2023-04-26T06:00:32;100393.38;;;23.69;42.90
56006;BME280;41888;44.696;10.522;2023-04-26T06:02:58;100399.38;;;24.03;41.82
56006;BME280;41888;44.696;10.522;2023-04-26T06:05:25;100399.09;;;24.74;40.75
56006;BME280;41888;44.696;10.522;2023-04-26T06:07:51;100407.53;;;24.73;39.96
56006;BME280;41888;44.696;10.522;2023-04-26T06:10:18;100410.44;;;26.13;38.06
56006;BME280;41888;44.696;10.522;2023-04-26T06:12:45;100420.44;;;26.62;36.49
56006;BME280;41888;44.696;10.522;2023-04-26T06:15:11;100429.53;;;27.33;36.38
56006;BME280;41888;44.696;10.522;2023-04-26T06:17:37;100422.88;;;27.25;36.02
56006;BME280;41888;44.696;10.522;2023-04-26T06:20:04;100416.72;;;26.80;36.71
56006;BME280;41888;44.696;10.522;2023-04-26T06:22:30;100427.56;;;26.94;37.00
56006;BME280;41888;44.696;10.522;2023-04-26T06:24:57;100434.03;;;25.95;37.57
56006;BME280;41888;44.696;10.522;2023-04-26T06:27:23;100423.44;;;25.39;39.05
56006;BME280;41888;44.696;10.522;2023-04-26T06:29:49;100425.44;;;24.93;39.64
56006;BME280;41888;44.696;10.522;2023-04-26T06:32:16;100420.88;;;23.14;43.00
56006;BME280;41888;44.696;10.522;2023-04-26T06:34:42;100426.59;;;22.50;45.15
56006;BME280;41888;44.696;10.522;2023-04-26T06:37:10;100430.03;;;21.78;47.25
56006;BME280;41888;44.696;10.522;2023-04-26T06:39:37;100419.69;;;21.00;50.03
56006;BME280;41888;44.696;10.522;2023-04-26T06:42:04;100427.59;;;20.51;52.75
56006;BME280;41888;44.696;10.522;2023-04-26T06:44:30;100423.75;;;20.27;54.57
56006;BME280;41888;44.696;10.522;2023-04-26T06:46:57;100425.63;;;19.44;56.08
56006;BME280;41888;44.696;10.522;2023-04-26T06:49:23;100433.53;;;18.72;57.99
56006;BME280;41888;44.696;10.522;2023-04-26T06:51:50;100435.19;;;18.46;59.36
56006;BME280;41888;44.696;10.522;2023-04-26T06:54:18;100434.75;;;17.57;63.15
56006;BME280;41888;44.696;10.522;2023-04-26T06:56:44;100443.88;;;17.99;62.67
56006;BME280;41888;44.696;10.522;2023-04-26T06:59:11;100440.97;;;17.79;63.32
56006;BME280;41888;44.696;10.522;2023-04-26T07:01:38;100438.34;;;17.84;68.41
56006;BME280;41888;44.696;10.522;2023-04-26T07:04:05;100441.25;;;18.31;67.60
56006;BME280;41888;44.696;10.522;2023-04-26T07:06:37;100446.50;;;17.51;70.20
56006;BME280;41888;44.696;10.522;2023-04-26T07:09:04;100444.16;;;17.16;74.32
56006;BME280;41888;44.696;10.522;2023-04-26T07:11:31;100448.31;;;17.23;74.75
56006;BME280;41888;44.696;10.522;2023-04-26T07:13:57;100445.75;;;16.95;73.18
56006;BME280;41888;44.696;10.522;2023-04-26T07:16:23;100436.38;;;17.36;72.32
56006;BME280;41888;44.696;10.522;2023-04-26T07:18:51;100438.91;;;17.64;69.53
56006;BME280;41888;44.696;10.522;2023-04-26T07:21:23;100444.19;;;17.38;70.57
56006;BME280;41888;44.696;10.522;2023-04-26T07:23:55;100440.88;;;17.52;70.57
56006;BME280;41888;44.696;10.522;2023-04-26T07:26:25;100438.75;;;17.71;70.42
56006;BME280;41888;44.696;10.522;2023-04-26T07:28:52;100440.38;;;17.34;70.71
56006;BME280;41888;44.696;10.522;2023-04-26T07:31:19;100443.47;;;17.25;72.53
56006;BME280;41888;44.696;10.522;2023-04-26T07:33:45;100440.06;;;16.92;75.66
56006;BME280;41888;44.696;10.522;2023-04-26T07:36:11;100438.91;;;16.71;78.70
56006;BME280;41888;44.696;10.522;2023-04-26T07:38:37;100440.22;;;16.68;81.25
56006;BME280;41888;44.696;10.522;2023-04-26T07:41:03;100439.31;;;16.63;79.69
56006;BME280;41888;44.696;10.522;2023-04-26T07:43:30;100442.31;;;16.50;81.84
56006;BME280;41888;44.696;10.522;2023-04-26T07:46:02;100440.03;;;16.13;85.43
56006;BME280;41888;44.696;10.522;2023-04-26T07:48:28;100440.38;;;15.88;88.49
56006;BME280;41888;44.696;10.522;2023-04-26T07:50:55;100443.28;;;16.43;86.22
56006;BME280;41888;44.696;10.522;2023-04-26T07:53:21;100437.50;;;16.52;85.06
56006;BME280;41888;44.696;10.522;2023-04-26T07:55:49;100441.31;;;16.56;82.29
56006;BME280;41888;44.696;10.522;2023-04-26T07:58:16;100449.28;;;16.51;81.91
56006;BME280;41888;44.696;10.522;2023-04-26T08:00:44;100447.16;;;16.81;81.22
56006;BME280;41888;44.696;10.522;2023-04-26T08:03:10;100448.88;;;16.42;82.56
56006;BME280;41888;44.696;10.522;2023-04-26T08:05:39;100451.31;;;16.43;82.04
56006;BME280;41888;44.696;10.522;2023-04-26T08:08:05;100447.75;;;16.55;80.02
56006;BME280;41888;44.696;10.522;2023-04-26T08:10:31;100450.69;;;17.03;78.20
56006;BME280;41888;44.696;10.522;2023-04-26T08:12:58;100451.50;;;17.04;77.86
56006;BME280;41888;44.696;10.522;2023-04-26T08:15:28;100457.06;;;16.97;76.47
56006;BME280;41888;44.696;10.522;2023-04-26T08:17:54;100452.00;;;16.84;77.62
56006;BME280;41888;44.696;10.522;2023-04-26T08:20:21;100450.53;;;16.93;74.24
56006;BME280;41888;44.696;10.522;2023-04-26T08:22:47;100459.97;;;17.12;69.74
56006;BME280;41888;44.696;10.522;2023-04-26T08:25:14;100463.63;;;17.23;65.37
56006;BME280;41888;44.696;10.522;2023-04-26T08:27:40;100460.38;;;17.21;64.38
56006;BME280;41888;44.696;10.522;2023-04-26T08:30:07;100462.88;;;17.27;67.31
56006;BME280;41888;44.696;10.522;2023-04-26T08:32:33;100462.53;;;17.02;70.30
56006;BME280;41888;44.696;10.522;2023-04-26T08:35:00;100461.75;;;17.23;69.43
56006;BME280;41888;44.696;10.522;2023-04-26T08:37:27;100457.78;;;17.09;69.07
56006;BME280;41888;44.696;10.522;2023-04-26T08:39:53;100453.81;;;16.95;69.39
56006;BME280;41888;44.696;10.522;2023-04-26T08:42:20;100456.00;;;16.81;69.67
56006;BME280;41888;44.696;10.522;2023-04-26T08:44:50;100468.88;;;16.96;68.24
56006;BME280;41888;44.696;10.522;2023-04-26T08:50:02;100459.59;;;16.25;74.68
56006;BME280;41888;44.696;10.522;2023-04-26T08:52:30;100460.50;;;16.31;75.83
56006;BME280;41888;44.696;10.522;2023-04-26T08:54:58;100458.13;;;16.63;73.81
56006;BME280;41888;44.696;10.522;2023-04-26T08:57:24;100455.56;;;16.56;72.35
56006;BME280;41888;44.696;10.522;2023-04-26T08:59:52;100462.75;;;16.67;68.69
56006;BME280;41888;44.696;10.522;2023-04-26T09:02:22;100467.25;;;16.78;69.65
56006;BME280;41888;44.696;10.522;2023-04-26T09:04:49;100464.94;;;16.87;69.46
56006;BME280;41888;44.696;10.522;2023-04-26T09:07:31;100458.34;;;17.11;67.03
56006;BME280;41888;44.696;10.522;2023-04-26T09:09:59;100461.94;;;17.00;65.21
56006;BME280;41888;44.696;10.522;2023-04-26T09:12:26;100462.59;;;16.91;68.69
56006;BME280;41888;44.696;10.522;2023-04-26T09:14:52;100458.59;;;17.10;68.87
56006;BME280;41888;44.696;10.522;2023-04-26T09:17:27;100459.13;;;17.28;68.64
56006;BME280;41888;44.696;10.522;2023-04-26T09:19:56;100463.38;;;17.63;69.01
56006;BME280;41888;44.696;10.522;2023-04-26T09:22:30;100474.06;;;18.01;66.01
56006;BME280;41888;44.696;10.522;2023-04-26T09:24:57;100465.50;;;17.83;63.37
56006;BME280;41888;44.696;10.522;2023-04-26T09:27:37;100467.38;;;17.82;64.53
56006;BME280;41888;44.696;10.522;2023-04-26T09:30:12;100468.16;;;18.04;63.46
56006;BME280;41888;44.696;10.522;2023-04-26T09:32:57;100470.00;;;18.26;63.96
56006;BME280;41888;44.696;10.522;2023-04-26T09:35:56;100460.78;;;18.17;62.51
56006;BME280;41888;44.696;10.522;2023-04-26T09:38:41;100454.25;;;17.86;62.17
56006;BME280;41888;44.696;10.522;2023-04-26T09:41:08;100454.75;;;18.09;63.38
56006;BME280;41888;44.696;10.522;2023-04-26T09:43:37;100455.38;;;18.17;63.73
56006;BME280;41888;44.696;10.522;2023-04-26T09:46:03;100452.53;;;18.01;63.36
56006;BME280;41888;44.696;10.522;2023-04-26T09:48:32;100451.25;;;18.09;62.81
56006;BME280;41888;44.696;10.522;2023-04-26T09:51:08;100450.09;;;18.27;61.95
56006;BME280;41888;44.696;10.522;2023-04-26T09:53:36;100438.34;;;18.65;61.11
56006;BME280;41888;44.696;10.522;2023-04-26T09:56:07;100439.63;;;18.94;60.13
56006;BME280;41888;44.696;10.522;2023-04-26T09:58:38;100434.50;;;18.87;60.30
56006;BME280;41888;44.696;10.522;2023-04-26T10:01:06;100436.38;;;18.55;59.97
56006;BME280;41888;44.696;10.522;2023-04-26T10:03:34;100435.03;;;18.31;60.62
56006;BME280;41888;44.696;10.522;2023-04-26T10:06:00;100436.38;;;18.28;61.38
56006;BME280;41888;44.696;10.522;2023-04-26T10:08:27;100428.38;;;18.65;60.46
56006;BME280;41888;44.696;10.522;2023-04-26T10:10:54;100430.09;;;18.76;58.01
56006;BME280;41888;44.696;10.522;2023-04-26T10:13:20;100428.81;;;18.89;57.05
56006;BME280;41888;44.696;10.522;2023-04-26T10:15:47;100427.53;;;18.96;56.17
56006;BME280;41888;44.696;10.522;2023-04-26T10:18:13;100428.59;;;18.59;56.07
56006;BME280;41888;44.696;10.522;2023-04-26T10:20:43;100425.19;;;18.41;57.56
56006;BME280;41888;44.696;10.522;2023-04-26T10:23:17;100424.78;;;18.54;57.61
56006;BME280;41888;44.696;10.522;2023-04-26T10:25:46;100419.84;;;18.46;59.00
56006;BME280;41888;44.696;10.522;2023-04-26T10:28:13;100417.13;;;18.73;57.19
56006;BME280;41888;44.696;10.522;2023-04-26T10:30:58;100414.06;;;18.96;58.34
56006;BME280;41888;44.696;10.522;2023-04-26T10:33:25;100419.88;;;19.25;58.06
56006;BME280;41888;44.696;10.522;2023-04-26T10:36:06;100414.13;;;19.59;56.22
56006;BME280;41888;44.696;10.522;2023-04-26T10:38:35;100416.06;;;19.78;55.58
56006;BME280;41888;44.696;10.522;2023-04-26T10:41:27;100402.91;;;20.02;53.51
56006;BME280;41888;44.696;10.522;2023-04-26T10:43:58;100405.00;;;19.80;54.94
56006;BME280;41888;44.696;10.522;2023-04-26T10:46:38;100392.63;;;19.22;55.94
56006;BME280;41888;44.696;10.522;2023-04-26T10:49:16;100399.97;;;19.41;56.67
56006;BME280;41888;44.696;10.522;2023-04-26T10:52:14;100400.06;;;19.52;54.54
56006;BME280;41888;44.696;10.522;2023-04-26T10:54:52;100397.13;;;19.58;54.30
56006;BME280;41888;44.696;10.522;2023-04-26T10:57:19;100391.03;;;19.31;55.21
56006;BME280;41888;44.696;10.522;2023-04-26T11:02:56;100383.94;;;19.15;55.25
56006;BME280;41888;44.696;10.522;2023-04-26T11:08:39;100381.97;;;19.52;54.14
56006;BME280;41888;44.696;10.522;2023-04-26T11:11:10;100390.72;;;19.95;53.50
56006;BME280;41888;44.696;10.522;2023-04-26T11:13:39;100379.19;;;20.19;52.07
56006;BME280;41888;44.696;10.522;2023-04-26T11:16:15;100369.16;;;20.10;50.25
56006;BME280;41888;44.696;10.522;2023-04-26T11:18:46;100368.16;;;19.44;52.93
56006;BME280;41888;44.696;10.522;2023-04-26T11:21:13;100351.28;;;19.78;52.66
56006;BME280;41888;44.696;10.522;2023-04-26T11:23:43;100355.13;;;20.23;51.68
56006;BME280;41888;44.696;10.522;2023-04-26T11:26:17;100361.84;;;19.90;50.16
56006;BME280;41888;44.696;10.522;2023-04-26T11:28:43;100361.00;;;19.79;49.67
56006;BME280;41888;44.696;10.522;2023-04-26T11:31:11;100356.66;;;19.73;50.09
56006;BME280;41888;44.696;10.522;2023-04-26T11:33:40;100346.72;;;19.89;50.34
56006;BME280;41888;44.696;10.522;2023-04-26T11:36:07;100340.50;;;19.94;51.06
56006;BME280;41888;44.696;10.522;2023-04-26T11:38:33;100342.41;;;19.98;51.99
56006;BME280;41888;44.696;10.522;2023-04-26T11:41:01;100335.69;;;20.41;50.58
56006;BME280;41888;44.696;10.522;2023-04-26T11:43:37;100332.41;;;19.99;51.38
56006;BME280;41888;44.696;10.522;2023-04-26T11:46:05;100337.41;;;19.39;53.47
56006;BME280;41888;44.696;10.522;2023-04-26T11:48:33;100330.69;;;19.47;53.00
56006;BME280;41888;44.696;10.522;2023-04-26T11:51:01;100329.13;;;19.56;52.98
56006;BME280;41888;44.696;10.522;2023-04-26T11:53:35;100317.81;;;19.79;52.36
56006;BME280;41888;44.696;10.522;2023-04-26T11:56:03;100321.66;;;19.21;54.90
56006;BME280;41888;44.696;10.522;2023-04-26T11:58:30;100315.91;;;19.75;54.21
56006;BME280;41888;44.696;10.522;2023-04-26T12:03:22;100319.75;;;20.19;52.51
56006;BME280;41888;44.696;10.522;2023-04-26T12:05:53;100317.81;;;20.65;52.03
56006;BME280;41888;44.696;10.522;2023-04-26T12:08:24;100319.97;;;20.69;50.66
56006;BME280;41888;44.696;10.522;2023-04-26T12:10:50;100329.66;;;20.85;49.13
56006;BME280;41888;44.696;10.522;2023-04-26T12:13:19;100328.34;;;21.52;46.94
56006;BME280;41888;44.696;10.522;2023-04-26T12:15:45;100322.03;;;21.07;47.12
56006;BME280;41888;44.696;10.522;2023-04-26T12:18:12;100329.03;;;21.18;45.53
56006;BME280;41888;44.696;10.522;2023-04-26T12:20:42;100323.97;;;20.91;46.58
56006;BME280;41888;44.696;10.522;2023-04-26T12:23:12;100325.31;;;20.84;48.22
56006;BME280;41888;44.696;10.522;2023-04-26T12:25:40;100319.13;;;20.78;48.26
56006;BME280;41888;44.696;10.522;2023-04-26T12:28:09;100320.91;;;21.13;47.90
56006;BME280;41888;44.696;10.522;2023-04-26T12:30:38;100324.00;;;21.56;48.09
56006;BME280;41888;44.696;10.522;2023-04-26T12:33:04;100322.97;;;21.41;45.98
56006;BME280;41888;44.696;10.522;2023-04-26T12:35:31;100318.50;;;21.06;47.23
56006;BME280;41888;44.696;10.522;2023-04-26T12:37:58;100309.16;;;20.63;49.04
56006;BME280;41888;44.696;10.522;2023-04-26T12:40:27;100317.97;;;21.10;47.36
56006;BME280;41888;44.696;10.522;2023-04-26T12:42:54;100318.81;;;20.95;46.20
56006;BME280;41888;44.696;10.522;2023-04-26T12:45:24;100322.16;;;20.67;45.05
56006;BME280;41888;44.696;10.522;2023-04-26T12:47:52;100315.94;;;20.56;46.53
56006;BME280;41888;44.696;10.522;2023-04-26T12:50:19;100319.69;;;20.70;44.89
56006;BME280;41888;44.696;10.522;2023-04-26T12:52:46;100313.94;;;21.02;43.89
56006;BME280;41888;44.696;10.522;2023-04-26T12:55:13;100312.25;;;21.21;41.87